sensor_id;sensor_type;location;lat;lon;timestamp;P1;durP1;ratioP1;P2;durP2;ratioP2
3070;SDS011;1546;47.208;9.038;2023-05-29T00:02:00;7.95;;;3.13;;
3070;SDS011;1546;47.208;9.038;2023-05-29T00:04:29;7.63;;;3.70;;
3070;SDS011;1546;47.208;9.038;2023-05-29T00:06:55;9.75;;;3.88;;
3070;SDS011;1546;47.208;9.038;2023-05-29T00:09:22;9.75;;;3.22;;
3070;SDS011;1546;47.208;9.038;2023-05-29T00:11:50;7.85;;;3.28;;
3070;SDS011;1546;47.208;9.038;2023-05-29T00:14:17;9.73;;;4.20;;
3070;SDS011;1546;47.208;9.038;2023-05-29T00:16:44;5.97;;;2.97;;
3070;SDS011;1546;47.208;9.038;2023-05-29T00:19:12;6.53;;;3.25;;
3070;SDS011;1546;47.208;9.038;2023-05-29T00:21:40;8.73;;;3.45;;
3070;SDS011;1546;47.208;9.038;2023-05-29T00:24:07;7.35;;;3.30;;
3070;SDS011;1546;47.208;9.038;2023-05-29T00:26:34;8.82;;;3.90;;
3070;SDS011;1546;47.208;9.038;2023-05-29T00:29:01;13.00;;;4.47;;
3070;SDS011;1546;47.208;9.038;2023-05-29T00:31:27;10.38;;;3.20;;
3070;SDS011;1546;47.208;9.038;2023-05-29T00:33:54;11.27;;;3.70;;
3070;SDS011;1546;47.208;9.038;2023-05-29T00:36:21;7.65;;;2.80;;
3070;SDS011;1546;47.208;9.038;2023-05-29T00:38:50;8.57;;;3.67;;
3070;SDS011;1546;47.208;9.038;2023-05-29T00:41:17;7.88;;;3.65;;
3070;SDS011;1546;47.208;9.038;2023-05-29T00:43:44;7.18;;;3.72;;
3070;SDS011;1546;47.208;9.038;2023-05-29T00:46:12;8.82;;;3.35;;
3070;SDS011;1546;47.208;9.038;2023-05-29T00:48:42;8.35;;;3.15;;
3070;SDS011;1546;47.208;9.038;2023-05-29T00:51:10;7.50;;;3.50;;
3070;SDS011;1546;47.208;9.038;2023-05-29T00:53:38;9.57;;;4.40;;
3070;SDS011;1546;47.208;9.038;2023-05-29T00:56:08;10.27;;;3.55;;
3070;SDS011;1546;47.208;9.038;2023-05-29T00:58:35;9.05;;;3.38;;
3070;SDS011;1546;47.208;9.038;2023-05-29T01:01:03;11.77;;;3.45;;
3070;SDS011;1546;47.208;9.038;2023-05-29T01:03:31;8.73;;;4.07;;
3070;SDS011;1546;47.208;9.038;2023-05-29T01:05:58;9.32;;;3.85;;
3070;SDS011;1546;47.208;9.038;2023-05-29T01:08:25;8.48;;;3.75;;
3070;SDS011;1546;47.208;9.038;2023-05-29T01:10:53;12.60;;;3.90;;
3070;SDS011;1546;47.208;9.038;2023-05-29T01:13:29;13.45;;;4.47;;
3070;SDS011;1546;47.208;9.038;2023-05-29T01:15:59;8.25;;;4.32;;
3070;SDS011;1546;47.208;9.038;2023-05-29T01:18:41;7.15;;;3.75;;
3070;SDS011;1546;47.208;9.038;2023-05-29T01:21:19;9.65;;;3.78;;
3070;SDS011;1546;47.208;9.038;2023-05-29T01:23:53;9.43;;;3.80;;
3070;SDS011;1546;47.208;9.038;2023-05-29T01:29:15;7.47;;;3.55;;
3070;SDS011;1546;47.208;9.038;2023-05-29T01:31:45;8.60;;;3.83;;
3070;SDS011;1546;47.208;9.038;2023-05-29T01:34:12;8.88;;;3.38;;
3070;SDS011;1546;47.208;9.038;2023-05-29T01:36:39;10.10;;;3.22;;
3070;SDS011;1546;47.208;9.038;2023-05-29T01:39:06;7.68;;;3.28;;
3070;SDS011;1546;47.208;9.038;2023-05-29T01:41:34;7.30;;;3.33;;
3070;SDS011;1546;47.208;9.038;2023-05-29T01:44:04;7.05;;;3.92;;
3070;SDS011;1546;47.208;9.038;2023-05-29T01:46:35;7.13;;;3.70;;
3070;SDS011;1546;47.208;9.038;2023-05-29T01:49:03;7.82;;;3.50;;
3070;SDS011;1546;47.208;9.038;2023-05-29T01:51:31;8.15;;;3.85;;
3070;SDS011;1546;47.208;9.038;2023-05-29T01:53:58;8.68;;;3.63;;
3070;SDS011;1546;47.208;9.038;2023-05-29T01:56:26;7.97;;;4.07;;
3070;SDS011;1546;47.208;9.038;2023-05-29T01:58:54;10.25;;;4.95;;
3070;SDS011;1546;47.208;9.038;2023-05-29T02:01:23;15.00;;;4.53;;
3070;SDS011;1546;47.208;9.038;2023-05-29T02:03:51;8.20;;;4.10;;
3070;SDS011;1546;47.208;9.038;2023-05-29T02:06:18;8.00;;;3.80;;
3070;SDS011;1546;47.208;9.038;2023-05-29T02:08:45;9.02;;;3.95;;
3070;SDS011;1546;47.208;9.038;2023-05-29T02:11:12;9.55;;;3.67;;
3070;SDS011;1546;47.208;9.038;2023-05-29T02:13:39;7.93;;;3.83;;
3070;SDS011;1546;47.208;9.038;2023-05-29T02:16:06;7.03;;;3.58;;
3070;SDS011;1546;47.208;9.038;2023-05-29T02:18:34;7.95;;;3.47;;
3070;SDS011;1546;47.208;9.038;2023-05-29T02:21:01;8.23;;;3.65;;
3070;SDS011;1546;47.208;9.038;2023-05-29T02:23:28;15.75;;;7.05;;
3070;SDS011;1546;47.208;9.038;2023-05-29T02:25:55;9.73;;;4.20;;
3070;SDS011;1546;47.208;9.038;2023-05-29T02:28:22;6.70;;;3.60;;
3070;SDS011;1546;47.208;9.038;2023-05-29T02:30:49;8.07;;;3.75;;
3070;SDS011;1546;47.208;9.038;2023-05-29T02:33:16;10.05;;;3.60;;
3070;SDS011;1546;47.208;9.038;2023-05-29T02:35:44;10.50;;;4.57;;
3070;SDS011;1546;47.208;9.038;2023-05-29T02:38:11;6.93;;;3.40;;
3070;SDS011;1546;47.208;9.038;2023-05-29T02:40:38;9.30;;;3.72;;
3070;SDS011;1546;47.208;9.038;2023-05-29T02:43:05;6.95;;;3.90;;
3070;SDS011;1546;47.208;9.038;2023-05-29T02:45:34;10.45;;;3.80;;
3070;SDS011;1546;47.208;9.038;2023-05-29T02:48:01;9.45;;;4.57;;
3070;SDS011;1546;47.208;9.038;2023-05-29T02:50:28;8.48;;;3.80;;
3070;SDS011;1546;47.208;9.038;2023-05-29T02:52:57;8.07;;;3.55;;
3070;SDS011;1546;47.208;9.038;2023-05-29T02:55:23;10.00;;;3.83;;
3070;SDS011;1546;47.208;9.038;2023-05-29T02:57:50;9.40;;;4.28;;
3070;SDS011;1546;47.208;9.038;2023-05-29T03:00:20;10.38;;;4.82;;
3070;SDS011;1546;47.208;9.038;2023-05-29T03:02:47;8.43;;;3.70;;
3070;SDS011;1546;47.208;9.038;2023-05-29T03:05:13;8.80;;;4.35;;
3070;SDS011;1546;47.208;9.038;2023-05-29T03:07:41;9.40;;;5.10;;
3070;SDS011;1546;47.208;9.038;2023-05-29T03:10:10;8.23;;;3.50;;
3070;SDS011;1546;47.208;9.038;2023-05-29T03:12:37;9.25;;;4.53;;
3070;SDS011;1546;47.208;9.038;2023-05-29T03:15:04;9.05;;;4.45;;
3070;SDS011;1546;47.208;9.038;2023-05-29T03:17:32;9.20;;;4.45;;
3070;SDS011;1546;47.208;9.038;2023-05-29T03:20:01;9.93;;;4.30;;
3070;SDS011;1546;47.208;9.038;2023-05-29T03:22:31;7.78;;;3.65;;
3070;SDS011;1546;47.208;9.038;2023-05-29T03:24:57;8.60;;;3.92;;
3070;SDS011;1546;47.208;9.038;2023-05-29T03:27:26;10.70;;;3.78;;
3070;SDS011;1546;47.208;9.038;2023-05-29T03:29:54;9.38;;;4.10;;
3070;SDS011;1546;47.208;9.038;2023-05-29T03:32:21;10.80;;;3.70;;
3070;SDS011;1546;47.208;9.038;2023-05-29T03:34:47;8.45;;;4.40;;
3070;SDS011;1546;47.208;9.038;2023-05-29T03:37:14;8.10;;;4.32;;
3070;SDS011;1546;47.208;9.038;2023-05-29T03:39:41;10.50;;;4.05;;
3070;SDS011;1546;47.208;9.038;2023-05-29T03:42:08;10.75;;;3.88;;
3070;SDS011;1546;47.208;9.038;2023-05-29T03:44:36;11.40;;;5.35;;
3070;SDS011;1546;47.208;9.038;2023-05-29T03:47:03;11.00;;;4.38;;
3070;SDS011;1546;47.208;9.038;2023-05-29T03:49:31;8.68;;;4.10;;
3070;SDS011;1546;47.208;9.038;2023-05-29T03:51:58;6.75;;;3.63;;
3070;SDS011;1546;47.208;9.038;2023-05-29T03:54:24;13.10;;;3.85;;
3070;SDS011;1546;47.208;9.038;2023-05-29T03:56:51;7.82;;;3.90;;
3070;SDS011;1546;47.208;9.038;2023-05-29T03:59:18;11.98;;;4.68;;
3070;SDS011;1546;47.208;9.038;2023-05-29T04:01:46;7.38;;;4.25;;
3070;SDS011;1546;47.208;9.038;2023-05-29T04:04:13;8.00;;;4.38;;
3070;SDS011;1546;47.208;9.038;2023-05-29T04:06:40;9.40;;;4.95;;
3070;SDS011;1546;47.208;9.038;2023-05-29T04:09:07;9.80;;;6.00;;
3070;SDS011;1546;47.208;9.038;2023-05-29T04:11:34;7.97;;;3.75;;
3070;SDS011;1546;47.208;9.038;2023-05-29T04:14:00;8.88;;;4.20;;
3070;SDS011;1546;47.208;9.038;2023-05-29T04:16:28;8.95;;;4.25;;
3070;SDS011;1546;47.208;9.038;2023-05-29T04:18:56;9.80;;;3.50;;
3070;SDS011;1546;47.208;9.038;2023-05-29T04:21:23;8.32;;;3.63;;
3070;SDS011;1546;47.208;9.038;2023-05-29T04:23:50;10.48;;;4.05;;
3070;SDS011;1546;47.208;9.038;2023-05-29T04:26:17;8.55;;;4.07;;
3070;SDS011;1546;47.208;9.038;2023-05-29T04:28:44;9.48;;;4.43;;
3070;SDS011;1546;47.208;9.038;2023-05-29T04:31:10;7.10;;;3.85;;
3070;SDS011;1546;47.208;9.038;2023-05-29T04:33:39;7.50;;;3.85;;
3070;SDS011;1546;47.208;9.038;2023-05-29T04:36:07;8.23;;;3.80;;
3070;SDS011;1546;47.208;9.038;2023-05-29T04:38:36;7.82;;;4.25;;
3070;SDS011;1546;47.208;9.038;2023-05-29T04:41:02;9.30;;;4.38;;
3070;SDS011;1546;47.208;9.038;2023-05-29T04:43:29;8.73;;;4.38;;
3070;SDS011;1546;47.208;9.038;2023-05-29T04:45:56;8.98;;;4.20;;
3070;SDS011;1546;47.208;9.038;2023-05-29T04:48:23;13.38;;;4.75;;
3070;SDS011;1546;47.208;9.038;2023-05-29T04:50:51;10.15;;;4.57;;
3070;SDS011;1546;47.208;9.038;2023-05-29T04:53:20;8.32;;;3.83;;
3070;SDS011;1546;47.208;9.038;2023-05-29T04:55:48;7.97;;;3.75;;
3070;SDS011;1546;47.208;9.038;2023-05-29T04:58:16;9.18;;;4.40;;
3070;SDS011;1546;47.208;9.038;2023-05-29T05:00:42;10.68;;;3.85;;
3070;SDS011;1546;47.208;9.038;2023-05-29T05:03:09;8.30;;;3.88;;
3070;SDS011;1546;47.208;9.038;2023-05-29T05:05:36;8.52;;;4.65;;
3070;SDS011;1546;47.208;9.038;2023-05-29T05:08:03;8.13;;;4.88;;
3070;SDS011;1546;47.208;9.038;2023-05-29T05:10:32;10.73;;;4.30;;
3070;SDS011;1546;47.208;9.038;2023-05-29T05:12:58;8.45;;;4.40;;
3070;SDS011;1546;47.208;9.038;2023-05-29T05:15:27;10.75;;;4.95;;
3070;SDS011;1546;47.208;9.038;2023-05-29T05:17:54;10.25;;;4.20;;
3070;SDS011;1546;47.208;9.038;2023-05-29T05:20:21;8.70;;;4.00;;
3070;SDS011;1546;47.208;9.038;2023-05-29T05:22:48;8.48;;;3.83;;
3070;SDS011;1546;47.208;9.038;2023-05-29T05:25:14;8.55;;;4.30;;
3070;SDS011;1546;47.208;9.038;2023-05-29T05:27:43;8.02;;;3.83;;
3070;SDS011;1546;47.208;9.038;2023-05-29T05:30:10;10.20;;;5.25;;
3070;SDS011;1546;47.208;9.038;2023-05-29T05:32:37;9.25;;;3.83;;
3070;SDS011;1546;47.208;9.038;2023-05-29T05:35:04;9.50;;;4.22;;
3070;SDS011;1546;47.208;9.038;2023-05-29T05:37:32;9.70;;;5.15;;
3070;SDS011;1546;47.208;9.038;2023-05-29T05:39:59;9.15;;;4.35;;
3070;SDS011;1546;47.208;9.038;2023-05-29T05:42:26;10.48;;;4.95;;
3070;SDS011;1546;47.208;9.038;2023-05-29T05:44:54;10.32;;;5.00;;
3070;SDS011;1546;47.208;9.038;2023-05-29T05:47:21;10.00;;;4.70;;
3070;SDS011;1546;47.208;9.038;2023-05-29T05:49:48;8.63;;;4.35;;
3070;SDS011;1546;47.208;9.038;2023-05-29T05:52:16;11.43;;;5.10;;
3070;SDS011;1546;47.208;9.038;2023-05-29T05:54:43;8.15;;;3.70;;
3070;SDS011;1546;47.208;9.038;2023-05-29T05:57:10;8.90;;;4.35;;
3070;SDS011;1546;47.208;9.038;2023-05-29T05:59:37;7.75;;;4.50;;
3070;SDS011;1546;47.208;9.038;2023-05-29T06:02:05;9.02;;;4.50;;
3070;SDS011;1546;47.208;9.038;2023-05-29T06:04:32;9.82;;;4.90;;
3070;SDS011;1546;47.208;9.038;2023-05-29T06:06:59;10.50;;;4.22;;
3070;SDS011;1546;47.208;9.038;2023-05-29T06:09:26;10.05;;;3.60;;
3070;SDS011;1546;47.208;9.038;2023-05-29T06:11:53;10.00;;;4.90;;
3070;SDS011;1546;47.208;9.038;2023-05-29T06:14:20;10.17;;;5.43;;
3070;SDS011;1546;47.208;9.038;2023-05-29T06:16:46;13.23;;;6.00;;
3070;SDS011;1546;47.208;9.038;2023-05-29T06:19:15;9.40;;;4.33;;
3070;SDS011;1546;47.208;9.038;2023-05-29T06:21:41;10.87;;;5.43;;
3070;SDS011;1546;47.208;9.038;2023-05-29T06:24:08;14.93;;;6.13;;
3070;SDS011;1546;47.208;9.038;2023-05-29T06:26:35;11.50;;;5.03;;
3070;SDS011;1546;47.208;9.038;2023-05-29T06:29:02;10.07;;;5.63;;
3070;SDS011;1546;47.208;9.038;2023-05-29T06:31:30;10.87;;;5.77;;
3070;SDS011;1546;47.208;9.038;2023-05-29T06:33:58;10.10;;;4.97;;
3070;SDS011;1546;47.208;9.038;2023-05-29T06:36:26;11.03;;;5.03;;
3070;SDS011;1546;47.208;9.038;2023-05-29T06:38:53;10.97;;;5.47;;
3070;SDS011;1546;47.208;9.038;2023-05-29T06:41:19;10.30;;;5.10;;
3070;SDS011;1546;47.208;9.038;2023-05-29T06:43:47;12.10;;;5.10;;
3070;SDS011;1546;47.208;9.038;2023-05-29T06:46:14;13.43;;;5.43;;
3070;SDS011;1546;47.208;9.038;2023-05-29T06:48:41;15.33;;;5.53;;
3070;SDS011;1546;47.208;9.038;2023-05-29T06:51:09;12.87;;;5.93;;
3070;SDS011;1546;47.208;9.038;2023-05-29T06:53:38;13.87;;;5.77;;
3070;SDS011;1546;47.208;9.038;2023-05-29T06:56:05;11.60;;;7.22;;
3070;SDS011;1546;47.208;9.038;2023-05-29T06:58:33;10.63;;;5.53;;
3070;SDS011;1546;47.208;9.038;2023-05-29T07:01:00;10.40;;;5.53;;
3070;SDS011;1546;47.208;9.038;2023-05-29T07:03:27;12.37;;;7.03;;
3070;SDS011;1546;47.208;9.038;2023-05-29T07:05:54;13.70;;;6.00;;
3070;SDS011;1546;47.208;9.038;2023-05-29T07:08:22;13.23;;;5.40;;
3070;SDS011;1546;47.208;9.038;2023-05-29T07:10:52;9.50;;;5.20;;
3070;SDS011;1546;47.208;9.038;2023-05-29T07:13:19;13.93;;;5.70;;
3070;SDS011;1546;47.208;9.038;2023-05-29T07:15:47;10.90;;;5.67;;
3070;SDS011;1546;47.208;9.038;2023-05-29T07:18:14;11.00;;;5.30;;
3070;SDS011;1546;47.208;9.038;2023-05-29T07:20:41;13.23;;;6.07;;
3070;SDS011;1546;47.208;9.038;2023-05-29T07:23:08;9.80;;;4.80;;
3070;SDS011;1546;47.208;9.038;2023-05-29T07:25:35;10.20;;;5.40;;
3070;SDS011;1546;47.208;9.038;2023-05-29T07:28:03;10.97;;;6.90;;
3070;SDS011;1546;47.208;9.038;2023-05-29T07:30:30;15.13;;;6.00;;
3070;SDS011;1546;47.208;9.038;2023-05-29T07:32:57;10.10;;;5.53;;
3070;SDS011;1546;47.208;9.038;2023-05-29T07:35:25;10.80;;;5.70;;
3070;SDS011;1546;47.208;9.038;2023-05-29T07:37:51;11.30;;;5.20;;
3070;SDS011;1546;47.208;9.038;2023-05-29T07:40:19;10.00;;;6.00;;
3070;SDS011;1546;47.208;9.038;2023-05-29T07:42:46;12.60;;;5.07;;
3070;SDS011;1546;47.208;9.038;2023-05-29T07:45:14;10.67;;;6.13;;
3070;SDS011;1546;47.208;9.038;2023-05-29T07:47:41;9.80;;;6.13;;
3070;SDS011;1546;47.208;9.038;2023-05-29T07:50:08;8.87;;;5.67;;
3070;SDS011;1546;47.208;9.038;2023-05-29T07:52:35;11.77;;;6.90;;
3070;SDS011;1546;47.208;9.038;2023-05-29T07:55:03;13.57;;;6.27;;
3070;SDS011;1546;47.208;9.038;2023-05-29T07:57:30;12.50;;;6.80;;
3070;SDS011;1546;47.208;9.038;2023-05-29T07:59:56;10.70;;;6.30;;
3070;SDS011;1546;47.208;9.038;2023-05-29T08:02:25;9.30;;;5.83;;
3070;SDS011;1546;47.208;9.038;2023-05-29T08:04:52;11.33;;;6.10;;
3070;SDS011;1546;47.208;9.038;2023-05-29T08:07:19;9.73;;;5.63;;
3070;SDS011;1546;47.208;9.038;2023-05-29T08:09:46;9.30;;;5.50;;
3070;SDS011;1546;47.208;9.038;2023-05-29T08:12:13;10.97;;;6.70;;
3070;SDS011;1546;47.208;9.038;2023-05-29T08:14:40;10.17;;;5.43;;
3070;SDS011;1546;47.208;9.038;2023-05-29T08:17:07;15.00;;;7.07;;
3070;SDS011;1546;47.208;9.038;2023-05-29T08:19:35;10.13;;;5.70;;
3070;SDS011;1546;47.208;9.038;2023-05-29T08:22:02;9.70;;;5.27;;
3070;SDS011;1546;47.208;9.038;2023-05-29T08:24:29;8.40;;;5.00;;
3070;SDS011;1546;47.208;9.038;2023-05-29T08:26:56;12.57;;;6.10;;
3070;SDS011;1546;47.208;9.038;2023-05-29T08:29:23;13.37;;;6.20;;
3070;SDS011;1546;47.208;9.038;2023-05-29T08:31:50;10.73;;;5.70;;
3070;SDS011;1546;47.208;9.038;2023-05-29T08:34:16;9.80;;;5.60;;
3070;SDS011;1546;47.208;9.038;2023-05-29T08:36:44;8.97;;;5.30;;
3070;SDS011;1546;47.208;9.038;2023-05-29T08:39:11;12.90;;;5.80;;
3070;SDS011;1546;47.208;9.038;2023-05-29T08:41:41;8.77;;;5.00;;
3070;SDS011;1546;47.208;9.038;2023-05-29T08:44:13;11.67;;;6.07;;
3070;SDS011;1546;47.208;9.038;2023-05-29T08:46:40;9.70;;;5.50;;
3070;SDS011;1546;47.208;9.038;2023-05-29T08:49:08;10.50;;;6.30;;
3070;SDS011;1546;47.208;9.038;2023-05-29T08:51:40;11.53;;;6.03;;
3070;SDS011;1546;47.208;9.038;2023-05-29T08:54:11;10.73;;;6.60;;
3070;SDS011;1546;47.208;9.038;2023-05-29T08:56:40;11.13;;;6.23;;
3070;SDS011;1546;47.208;9.038;2023-05-29T08:59:07;10.97;;;6.23;;
3070;SDS011;1546;47.208;9.038;2023-05-29T09:01:35;10.50;;;6.37;;
3070;SDS011;1546;47.208;9.038;2023-05-29T09:04:04;12.00;;;6.30;;
3070;SDS011;1546;47.208;9.038;2023-05-29T09:06:31;9.17;;;5.00;;
3070;SDS011;1546;47.208;9.038;2023-05-29T09:08:58;11.53;;;5.40;;
3070;SDS011;1546;47.208;9.038;2023-05-29T09:11:26;11.77;;;6.60;;
3070;SDS011;1546;47.208;9.038;2023-05-29T09:13:53;11.60;;;6.67;;
3070;SDS011;1546;47.208;9.038;2023-05-29T09:16:22;9.20;;;6.50;;
3070;SDS011;1546;47.208;9.038;2023-05-29T09:18:49;14.90;;;7.37;;
3070;SDS011;1546;47.208;9.038;2023-05-29T09:21:24;10.67;;;6.50;;
3070;SDS011;1546;47.208;9.038;2023-05-29T09:23:52;9.70;;;6.20;;
3070;SDS011;1546;47.208;9.038;2023-05-29T09:26:20;14.00;;;6.30;;
3070;SDS011;1546;47.208;9.038;2023-05-29T09:28:49;10.83;;;6.00;;
3070;SDS011;1546;47.208;9.038;2023-05-29T09:31:16;11.97;;;7.23;;
3070;SDS011;1546;47.208;9.038;2023-05-29T09:33:48;13.90;;;6.20;;
3070;SDS011;1546;47.208;9.038;2023-05-29T09:36:21;11.37;;;6.93;;
3070;SDS011;1546;47.208;9.038;2023-05-29T09:38:48;11.80;;;6.10;;
3070;SDS011;1546;47.208;9.038;2023-05-29T09:41:20;14.23;;;6.60;;
3070;SDS011;1546;47.208;9.038;2023-05-29T09:43:50;10.97;;;5.50;;
3070;SDS011;1546;47.208;9.038;2023-05-29T09:46:18;11.10;;;6.23;;
3070;SDS011;1546;47.208;9.038;2023-05-29T09:48:45;11.30;;;6.13;;
3070;SDS011;1546;47.208;9.038;2023-05-29T09:51:18;10.50;;;6.33;;
3070;SDS011;1546;47.208;9.038;2023-05-29T09:53:47;11.20;;;7.10;;
3070;SDS011;1546;47.208;9.038;2023-05-29T09:56:15;13.30;;;6.00;;
3070;SDS011;1546;47.208;9.038;2023-05-29T09:58:43;14.30;;;6.63;;
3070;SDS011;1546;47.208;9.038;2023-05-29T10:01:13;9.67;;;5.97;;
3070;SDS011;1546;47.208;9.038;2023-05-29T10:03:41;10.23;;;6.10;;
3070;SDS011;1546;47.208;9.038;2023-05-29T10:06:08;10.63;;;6.37;;
3070;SDS011;1546;47.208;9.038;2023-05-29T10:08:38;10.63;;;6.40;;
3070;SDS011;1546;47.208;9.038;2023-05-29T10:11:12;11.93;;;7.33;;
3070;SDS011;1546;47.208;9.038;2023-05-29T10:13:41;14.80;;;6.40;;
3070;SDS011;1546;47.208;9.038;2023-05-29T10:16:15;12.60;;;6.27;;
3070;SDS011;1546;47.208;9.038;2023-05-29T10:18:47;13.43;;;6.50;;
3070;SDS011;1546;47.208;9.038;2023-05-29T10:21:19;14.37;;;6.70;;
3070;SDS011;1546;47.208;9.038;2023-05-29T10:23:48;11.53;;;5.93;;
3070;SDS011;1546;47.208;9.038;2023-05-29T10:26:18;8.50;;;5.57;;
3070;SDS011;1546;47.208;9.038;2023-05-29T10:28:49;9.60;;;6.17;;
3070;SDS011;1546;47.208;9.038;2023-05-29T10:31:22;12.37;;;7.37;;
3070;SDS011;1546;47.208;9.038;2023-05-29T10:33:58;12.10;;;6.57;;
3070;SDS011;1546;47.208;9.038;2023-05-29T10:36:35;13.47;;;7.50;;
3070;SDS011;1546;47.208;9.038;2023-05-29T10:39:05;12.63;;;8.50;;
3070;SDS011;1546;47.208;9.038;2023-05-29T10:41:32;17.93;;;6.80;;
3070;SDS011;1546;47.208;9.038;2023-05-29T10:44:04;10.70;;;5.23;;
3070;SDS011;1546;47.208;9.038;2023-05-29T10:47:06;10.70;;;5.80;;
3070;SDS011;1546;47.208;9.038;2023-05-29T10:49:34;11.90;;;7.10;;
3070;SDS011;1546;47.208;9.038;2023-05-29T10:52:00;9.37;;;5.37;;
3070;SDS011;1546;47.208;9.038;2023-05-29T10:54:39;9.67;;;5.43;;
3070;SDS011;1546;47.208;9.038;2023-05-29T10:57:07;10.73;;;5.80;;
3070;SDS011;1546;47.208;9.038;2023-05-29T10:59:35;11.20;;;5.07;;
3070;SDS011;1546;47.208;9.038;2023-05-29T11:02:03;9.60;;;5.10;;
3070;SDS011;1546;47.208;9.038;2023-05-29T11:04:32;9.60;;;4.87;;
3070;SDS011;1546;47.208;9.038;2023-05-29T11:06:59;9.13;;;4.87;;
3070;SDS011;1546;47.208;9.038;2023-05-29T11:09:29;7.73;;;4.80;;
3070;SDS011;1546;47.208;9.038;2023-05-29T11:12:09;9.97;;;4.77;;
3070;SDS011;1546;47.208;9.038;2023-05-29T11:14:52;13.07;;;4.80;;
3070;SDS011;1546;47.208;9.038;2023-05-29T11:17:32;10.77;;;4.57;;
3070;SDS011;1546;47.208;9.038;2023-05-29T11:20:09;7.90;;;4.80;;
3070;SDS011;1546;47.208;9.038;2023-05-29T11:22:55;7.90;;;4.70;;
3070;SDS011;1546;47.208;9.038;2023-05-29T11:25:33;8.70;;;5.00;;
3070;SDS011;1546;47.208;9.038;2023-05-29T11:28:02;8.00;;;4.30;;
3070;SDS011;1546;47.208;9.038;2023-05-29T11:30:40;8.70;;;4.63;;
3070;SDS011;1546;47.208;9.038;2023-05-29T11:33:10;8.63;;;4.47;;
3070;SDS011;1546;47.208;9.038;2023-05-29T11:35:44;8.13;;;4.60;;
3070;SDS011;1546;47.208;9.038;2023-05-29T11:38:12;8.27;;;4.77;;
3070;SDS011;1546;47.208;9.038;2023-05-29T11:40:41;7.33;;;4.53;;
3070;SDS011;1546;47.208;9.038;2023-05-29T11:43:08;8.17;;;4.33;;
3070;SDS011;1546;47.208;9.038;2023-05-29T11:45:37;9.53;;;4.43;;
3070;SDS011;1546;47.208;9.038;2023-05-29T11:48:04;9.00;;;4.33;;
3070;SDS011;1546;47.208;9.038;2023-05-29T11:50:33;7.73;;;4.80;;
3070;SDS011;1546;47.208;9.038;2023-05-29T11:53:02;7.50;;;4.37;;
3070;SDS011;1546;47.208;9.038;2023-05-29T11:55:29;9.53;;;4.60;;
3070;SDS011;1546;47.208;9.038;2023-05-29T11:57:56;7.57;;;4.40;;
3070;SDS011;1546;47.208;9.038;2023-05-29T12:00:25;9.00;;;4.97;;
3070;SDS011;1546;47.208;9.038;2023-05-29T12:02:52;9.10;;;4.87;;
3070;SDS011;1546;47.208;9.038;2023-05-29T12:05:19;7.60;;;4.10;;
3070;SDS011;1546;47.208;9.038;2023-05-29T12:07:51;7.50;;;4.43;;
3070;SDS011;1546;47.208;9.038;2023-05-29T12:10:19;9.83;;;4.40;;
3070;SDS011;1546;47.208;9.038;2023-05-29T12:12:47;7.80;;;4.20;;
3070;SDS011;1546;47.208;9.038;2023-05-29T12:15:14;6.67;;;4.17;;
3070;SDS011;1546;47.208;9.038;2023-05-29T12:17:42;9.60;;;5.50;;
3070;SDS011;1546;47.208;9.038;2023-05-29T12:20:10;7.40;;;4.53;;
3070;SDS011;1546;47.208;9.038;2023-05-29T12:22:38;7.90;;;4.40;;
3070;SDS011;1546;47.208;9.038;2023-05-29T12:25:09;10.17;;;4.50;;
3070;SDS011;1546;47.208;9.038;2023-05-29T12:27:37;10.17;;;5.10;;
3070;SDS011;1546;47.208;9.038;2023-05-29T12:30:08;7.63;;;4.33;;
3070;SDS011;1546;47.208;9.038;2023-05-29T12:32:37;9.07;;;4.50;;
3070;SDS011;1546;47.208;9.038;2023-05-29T12:35:15;9.27;;;5.10;;
3070;SDS011;1546;47.208;9.038;2023-05-29T12:37:44;8.90;;;5.30;;
3070;SDS011;1546;47.208;9.038;2023-05-29T12:40:17;9.93;;;4.67;;
3070;SDS011;1546;47.208;9.038;2023-05-29T12:42:46;8.90;;;4.83;;
3070;SDS011;1546;47.208;9.038;2023-05-29T12:45:14;8.70;;;5.00;;
3070;SDS011;1546;47.208;9.038;2023-05-29T12:47:49;10.13;;;5.00;;
3070;SDS011;1546;47.208;9.038;2023-05-29T12:50:24;9.40;;;5.13;;
3070;SDS011;1546;47.208;9.038;2023-05-29T12:52:55;7.97;;;4.80;;
3070;SDS011;1546;47.208;9.038;2023-05-29T12:55:24;11.43;;;5.17;;
3070;SDS011;1546;47.208;9.038;2023-05-29T12:57:52;8.53;;;4.93;;
3070;SDS011;1546;47.208;9.038;2023-05-29T13:00:20;8.93;;;5.20;;
3070;SDS011;1546;47.208;9.038;2023-05-29T13:02:48;12.20;;;4.93;;
3070;SDS011;1546;47.208;9.038;2023-05-29T13:05:16;8.90;;;4.73;;
3070;SDS011;1546;47.208;9.038;2023-05-29T13:07:44;10.63;;;5.00;;
3070;SDS011;1546;47.208;9.038;2023-05-29T13:10:12;14.00;;;4.73;;
3070;SDS011;1546;47.208;9.038;2023-05-29T13:12:40;15.07;;;6.00;;
3070;SDS011;1546;47.208;9.038;2023-05-29T13:15:09;9.93;;;5.10;;
3070;SDS011;1546;47.208;9.038;2023-05-29T13:17:37;8.03;;;4.20;;
3070;SDS011;1546;47.208;9.038;2023-05-29T13:20:06;11.40;;;4.73;;
3070;SDS011;1546;47.208;9.038;2023-05-29T13:22:35;8.17;;;4.80;;
3070;SDS011;1546;47.208;9.038;2023-05-29T13:25:01;7.90;;;4.37;;
3070;SDS011;1546;47.208;9.038;2023-05-29T13:27:31;10.70;;;5.07;;
3070;SDS011;1546;47.208;9.038;2023-05-29T13:30:00;7.60;;;5.00;;
3070;SDS011;1546;47.208;9.038;2023-05-29T13:32:27;7.70;;;4.70;;
3070;SDS011;1546;47.208;9.038;2023-05-29T13:34:54;9.87;;;5.50;;
3070;SDS011;1546;47.208;9.038;2023-05-29T13:37:21;11.73;;;5.33;;
3070;SDS011;1546;47.208;9.038;2023-05-29T13:39:48;9.60;;;5.57;;
3070;SDS011;1546;47.208;9.038;2023-05-29T13:42:15;8.03;;;4.80;;
3070;SDS011;1546;47.208;9.038;2023-05-29T13:44:43;7.80;;;4.60;;
3070;SDS011;1546;47.208;9.038;2023-05-29T13:47:11;8.00;;;4.37;;
3070;SDS011;1546;47.208;9.038;2023-05-29T13:49:38;9.17;;;5.40;;
3070;SDS011;1546;47.208;9.038;2023-05-29T13:52:05;10.17;;;5.20;;
3070;SDS011;1546;47.208;9.038;2023-05-29T13:54:32;8.70;;;5.00;;
3070;SDS011;1546;47.208;9.038;2023-05-29T13:57:01;12.70;;;5.00;;
3070;SDS011;1546;47.208;9.038;2023-05-29T13:59:28;8.40;;;5.00;;
3070;SDS011;1546;47.208;9.038;2023-05-29T14:01:55;9.23;;;4.30;;
3070;SDS011;1546;47.208;9.038;2023-05-29T14:04:23;10.23;;;5.00;;
3070;SDS011;1546;47.208;9.038;2023-05-29T14:06:50;8.60;;;5.27;;
3070;SDS011;1546;47.208;9.038;2023-05-29T14:09:17;8.10;;;4.40;;
3070;SDS011;1546;47.208;9.038;2023-05-29T14:11:51;9.20;;;5.13;;
3070;SDS011;1546;47.208;9.038;2023-05-29T14:14:18;7.80;;;4.37;;
3070;SDS011;1546;47.208;9.038;2023-05-29T14:16:45;7.17;;;4.57;;
3070;SDS011;1546;47.208;9.038;2023-05-29T14:19:12;15.33;;;5.30;;
3070;SDS011;1546;47.208;9.038;2023-05-29T14:21:40;7.63;;;4.43;;
3070;SDS011;1546;47.208;9.038;2023-05-29T14:24:07;8.13;;;4.23;;
3070;SDS011;1546;47.208;9.038;2023-05-29T14:26:34;7.37;;;3.73;;
3070;SDS011;1546;47.208;9.038;2023-05-29T14:29:01;11.83;;;5.30;;
3070;SDS011;1546;47.208;9.038;2023-05-29T14:31:28;9.27;;;4.57;;
3070;SDS011;1546;47.208;9.038;2023-05-29T14:33:55;14.47;;;5.23;;
3070;SDS011;1546;47.208;9.038;2023-05-29T14:36:22;8.23;;;4.80;;
3070;SDS011;1546;47.208;9.038;2023-05-29T14:38:50;8.47;;;4.50;;
3070;SDS011;1546;47.208;9.038;2023-05-29T14:41:17;6.90;;;4.93;;
3070;SDS011;1546;47.208;9.038;2023-05-29T14:43:44;8.93;;;4.40;;
3070;SDS011;1546;47.208;9.038;2023-05-29T14:46:11;9.30;;;4.20;;
3070;SDS011;1546;47.208;9.038;2023-05-29T14:48:38;7.43;;;4.10;;
3070;SDS011;1546;47.208;9.038;2023-05-29T14:51:05;8.73;;;4.57;;
3070;SDS011;1546;47.208;9.038;2023-05-29T14:53:32;8.17;;;4.37;;
3070;SDS011;1546;47.208;9.038;2023-05-29T14:56:01;8.80;;;4.50;;
3070;SDS011;1546;47.208;9.038;2023-05-29T14:58:27;11.43;;;4.77;;
3070;SDS011;1546;47.208;9.038;2023-05-29T15:00:54;7.23;;;4.50;;
3070;SDS011;1546;47.208;9.038;2023-05-29T15:03:22;7.00;;;4.20;;
3070;SDS011;1546;47.208;9.038;2023-05-29T15:05:52;9.57;;;4.20;;
3070;SDS011;1546;47.208;9.038;2023-05-29T15:08:18;10.97;;;4.83;;
3070;SDS011;1546;47.208;9.038;2023-05-29T15:10:45;7.93;;;4.00;;
3070;SDS011;1546;47.208;9.038;2023-05-29T15:13:13;7.83;;;4.63;;
3070;SDS011;1546;47.208;9.038;2023-05-29T15:15:40;8.47;;;4.60;;
3070;SDS011;1546;47.208;9.038;2023-05-29T15:18:07;12.00;;;5.10;;
3070;SDS011;1546;47.208;9.038;2023-05-29T15:20:34;9.27;;;4.10;;